Terminal Aerodrome Forecast
Issued by NWS Milwaukee/Sullivan, WI

Home | Current Version | Previous Version | Text Only | Print | Product List | Glossary On
Versions: 1 2 3 4 5 6 7 8 9 10 11 12 13 14 15 16 17 18 19 20 21 22 23 24 25 26 27 28 29 30 31 32 33 34 35 36 37 38 39 40 41 42 43 44 45 46 47 48 49 50
000
FTUS43 KMKX 292111 AAA
TAFMKE
TAF AMD
KMKE 292111Z 2921/3024 17011KT P6SM VCTS BKN050CB
     FM292300 18008KT P6SM VCTS BKN050CB
     FM300400 21008KT P6SM SHRA VCTS OVC045CB
     FM300600 26008KT P6SM SHRA VCTS OVC040CB
     FM301200 01010G17KT 5SM SHRA BR OVC008
     FM301400 02016G24KT 5SM SHRA BR OVC008
     FM301700 02020G28KT P6SM -SHRA OVC015
     FM302000 02019G28KT P6SM OVC035=

USA.gov is the U.S. government's official web portal to all federal, state and local government web resources and services.